Карточка аэропорта URSS

Внимание!
Информация на этой странице в стадии наполнения.
Если вы не увидели какой-то информации, или заметили неточность - пожалуйста сообщите нам!
Спасибо!
Команда RU-STAFF
Название аэропортаСочи
Название аэропорта (англ.)Sochi
Превышение89 ft. (27.1 m.)
Координаты43°26.634', 39°56.55'
Высота перехода13000 ft
Эшелон переходаFL140 (QNH >= 1013); FL150 (QNH 977-1012); FL160 (QNH < 977)
Коды ответчика1060-1077
Зона ОрВДРостов-на-Дону РПИ (URRV)
Данные METARURSS 152230Z 05002MPS 9999 FEW020 23/21 Q1007 R02/010070 R06/010070 NOSIG RMK R06/34002MPS MT OBSC QFE754
Проноз погоды (TAF)URSS 151955Z 1521/1621 05003G08MPS 9999 BKN013 BKN030CB OVC100 TEMPO 1521/1606 VRB09G15MPS 1000 TSRA SQ BKN006 BKN030CB OVC100 FM160600 16005G10MPS 9999 -SHRA SCT016 BKN030CB OVC100 TEMPO 1606/1609 VRB07G12MPS 1000 TSRA BKN006 BKN030CB OVC100 FM161100 23004G09MPS 9999 BKN030CB BKN100 BECMG 1613/1615 28004G09MPS BECMG 1617/1618 05003G08MPS
NOTAMshow/hide NOTAM
AWOS   TABLE

Информация о ВПП

ВПП Длина ВПП (м.) Покрытие Курс ВПП Частота ILS
022500Цементобетон22110.5
202500Цементобетон202 
062890Цементобетон58111.1
242890Цементобетон238 

Диспетчерские позиции

Позывной Наименование органа УВД Частота
URSS_FM1119.000
URSS_DELСочи-Деливери132.700
URSS_R_APPСочи-Круг119.700
URSS_APPСочи-Подход124.600
URSS_GNDСочи-Руление119.000
URSS_TWRСочи-Старт121.200



Спутниковое изображение